<?xml version="1.0" encoding="UTF-8" standalone="no" ?>
<gpx xmlns="http://www.topografix.com/GPX/1/1" xmlns:xsi="http://www.w3.org/2001/XMLSchema-instance" xsi:schemaLocation="http://www.topografix.com/GPX/1/1 http://www.topografix.com/GPX/1/1/gpx.xsd" version="1.1" creator="VisuGPX - https://www.visugpx.com">
  <metadata>
    <name>sortie du dimanche</name>
    <desc><![CDATA[sortie en foret avec ma chienne elle adore ce coin de foret de sénart beau temps avec un 4°]]></desc>
  </metadata>
  <trk>
    <name><![CDATA[20171126_101237.gpx]]></name>
    <trkseg>
      <trkpt lat="48.60609" lon="2.56334">
        <ele>133</ele>
        <time>2017-11-26T09:21:36Z</time>
      </trkpt>
      <trkpt lat="48.60608" lon="2.56331">
        <ele>132</ele>
        <time>2017-11-26T09:21:37Z</time>
      </trkpt>
      <trkpt lat="48.60602" lon="2.56318">
        <ele>137</ele>
        <time>2017-11-26T09:21:42Z</time>
      </trkpt>
      <trkpt lat="48.606" lon="2.56316">
        <ele>138</ele>
        <time>2017-11-26T09:21:43Z</time>
      </trkpt>
      <trkpt lat="48.606" lon="2.56312">
        <ele>137</ele>
        <time>2017-11-26T09:21:44Z</time>
      </trkpt>
      <trkpt lat="48.60607" lon="2.56301">
        <ele>143</ele>
        <time>2017-11-26T09:21:49Z</time>
      </trkpt>
      <trkpt lat="48.60609" lon="2.56297">
        <ele>143</ele>
        <time>2017-11-26T09:21:50Z</time>
      </trkpt>
      <trkpt lat="48.60615" lon="2.56285">
        <ele>143</ele>
        <time>2017-11-26T09:21:54Z</time>
      </trkpt>
      <trkpt lat="48.60617" lon="2.56282">
        <ele>144</ele>
        <time>2017-11-26T09:21:55Z</time>
      </trkpt>
      <trkpt lat="48.60623" lon="2.56268">
        <ele>145</ele>
        <time>2017-11-26T09:21:59Z</time>
      </trkpt>
      <trkpt lat="48.60625" lon="2.56265">
        <ele>145</ele>
        <time>2017-11-26T09:22:00Z</time>
      </trkpt>
      <trkpt lat="48.60632" lon="2.56252">
        <ele>143</ele>
        <time>2017-11-26T09:22:03Z</time>
      </trkpt>
      <trkpt lat="48.6064" lon="2.56243">
        <ele>142</ele>
        <time>2017-11-26T09:22:07Z</time>
      </trkpt>
      <trkpt lat="48.60646" lon="2.5623">
        <ele>143</ele>
        <time>2017-11-26T09:22:11Z</time>
      </trkpt>
      <trkpt lat="48.60647" lon="2.56215">
        <ele>141</ele>
        <time>2017-11-26T09:22:14Z</time>
      </trkpt>
      <trkpt lat="48.60649" lon="2.562">
        <ele>141</ele>
        <time>2017-11-26T09:22:17Z</time>
      </trkpt>
      <trkpt lat="48.60648" lon="2.5618">
        <ele>141</ele>
        <time>2017-11-26T09:22:21Z</time>
      </trkpt>
      <trkpt lat="48.60649" lon="2.56166">
        <ele>143</ele>
        <time>2017-11-26T09:22:24Z</time>
      </trkpt>
      <trkpt lat="48.60649" lon="2.56152">
        <ele>143</ele>
        <time>2017-11-26T09:22:27Z</time>
      </trkpt>
      <trkpt lat="48.60649" lon="2.56137">
        <ele>143</ele>
        <time>2017-11-26T09:22:30Z</time>
      </trkpt>
      <trkpt lat="48.60648" lon="2.56122">
        <ele>142</ele>
        <time>2017-11-26T09:22:33Z</time>
      </trkpt>
      <trkpt lat="48.60648" lon="2.56104">
        <ele>143</ele>
        <time>2017-11-26T09:22:37Z</time>
      </trkpt>
      <trkpt lat="48.6065" lon="2.56089">
        <ele>143</ele>
        <time>2017-11-26T09:22:40Z</time>
      </trkpt>
      <trkpt lat="48.60649" lon="2.56075">
        <ele>143</ele>
        <time>2017-11-26T09:22:43Z</time>
      </trkpt>
      <trkpt lat="48.6065" lon="2.56058">
        <ele>143</ele>
        <time>2017-11-26T09:22:46Z</time>
      </trkpt>
      <trkpt lat="48.60649" lon="2.56042">
        <ele>143</ele>
        <time>2017-11-26T09:22:49Z</time>
      </trkpt>
      <trkpt lat="48.60651" lon="2.56026">
        <ele>142</ele>
        <time>2017-11-26T09:22:53Z</time>
      </trkpt>
      <trkpt lat="48.60651" lon="2.56008">
        <ele>142</ele>
        <time>2017-11-26T09:22:57Z</time>
      </trkpt>
      <trkpt lat="48.60648" lon="2.55994">
        <ele>142</ele>
        <time>2017-11-26T09:23:00Z</time>
      </trkpt>
      <trkpt lat="48.60645" lon="2.55978">
        <ele>143</ele>
        <time>2017-11-26T09:23:03Z</time>
      </trkpt>
      <trkpt lat="48.60643" lon="2.55961">
        <ele>143</ele>
        <time>2017-11-26T09:23:06Z</time>
      </trkpt>
      <trkpt lat="48.6064" lon="2.55941">
        <ele>143</ele>
        <time>2017-11-26T09:23:09Z</time>
      </trkpt>
      <trkpt lat="48.60638" lon="2.55928">
        <ele>143</ele>
        <time>2017-11-26T09:23:11Z</time>
      </trkpt>
      <trkpt lat="48.60636" lon="2.55914">
        <ele>144</ele>
        <time>2017-11-26T09:23:13Z</time>
      </trkpt>
      <trkpt lat="48.60634" lon="2.55901">
        <ele>145</ele>
        <time>2017-11-26T09:23:15Z</time>
      </trkpt>
      <trkpt lat="48.6063" lon="2.55882">
        <ele>146</ele>
        <time>2017-11-26T09:23:18Z</time>
      </trkpt>
      <trkpt lat="48.60629" lon="2.55877">
        <ele>146</ele>
        <time>2017-11-26T09:23:19Z</time>
      </trkpt>
      <trkpt lat="48.60625" lon="2.5586">
        <ele>147</ele>
        <time>2017-11-26T09:23:22Z</time>
      </trkpt>
      <trkpt lat="48.60624" lon="2.55855">
        <ele>147</ele>
        <time>2017-11-26T09:23:23Z</time>
      </trkpt>
      <trkpt lat="48.60621" lon="2.55841">
        <ele>151</ele>
        <time>2017-11-26T09:23:26Z</time>
      </trkpt>
      <trkpt lat="48.60619" lon="2.55837">
        <ele>150</ele>
        <time>2017-11-26T09:23:27Z</time>
      </trkpt>
      <trkpt lat="48.60616" lon="2.55824">
        <ele>151</ele>
        <time>2017-11-26T09:23:30Z</time>
      </trkpt>
      <trkpt lat="48.60613" lon="2.55809">
        <ele>155</ele>
        <time>2017-11-26T09:23:34Z</time>
      </trkpt>
      <trkpt lat="48.60612" lon="2.55804">
        <ele>155</ele>
        <time>2017-11-26T09:23:35Z</time>
      </trkpt>
      <trkpt lat="48.60607" lon="2.55792">
        <ele>154</ele>
        <time>2017-11-26T09:23:38Z</time>
      </trkpt>
      <trkpt lat="48.606" lon="2.55777">
        <ele>154</ele>
        <time>2017-11-26T09:23:42Z</time>
      </trkpt>
      <trkpt lat="48.60595" lon="2.55766">
        <ele>153</ele>
        <time>2017-11-26T09:23:45Z</time>
      </trkpt>
      <trkpt lat="48.60589" lon="2.55752">
        <ele>153</ele>
        <time>2017-11-26T09:23:49Z</time>
      </trkpt>
      <trkpt lat="48.60582" lon="2.55738">
        <ele>152</ele>
        <time>2017-11-26T09:23:53Z</time>
      </trkpt>
      <trkpt lat="48.60576" lon="2.55726">
        <ele>150</ele>
        <time>2017-11-26T09:23:56Z</time>
      </trkpt>
      <trkpt lat="48.60571" lon="2.55714">
        <ele>150</ele>
        <time>2017-11-26T09:23:59Z</time>
      </trkpt>
      <trkpt lat="48.60564" lon="2.55699">
        <ele>152</ele>
        <time>2017-11-26T09:24:03Z</time>
      </trkpt>
      <trkpt lat="48.60559" lon="2.55687">
        <ele>151</ele>
        <time>2017-11-26T09:24:06Z</time>
      </trkpt>
      <trkpt lat="48.60553" lon="2.55672">
        <ele>152</ele>
        <time>2017-11-26T09:24:10Z</time>
      </trkpt>
      <trkpt lat="48.60548" lon="2.55659">
        <ele>152</ele>
        <time>2017-11-26T09:24:13Z</time>
      </trkpt>
      <trkpt lat="48.60541" lon="2.55645">
        <ele>152</ele>
        <time>2017-11-26T09:24:16Z</time>
      </trkpt>
      <trkpt lat="48.60535" lon="2.5563">
        <ele>151</ele>
        <time>2017-11-26T09:24:19Z</time>
      </trkpt>
      <trkpt lat="48.60529" lon="2.55614">
        <ele>151</ele>
        <time>2017-11-26T09:24:22Z</time>
      </trkpt>
      <trkpt lat="48.60523" lon="2.55598">
        <ele>152</ele>
        <time>2017-11-26T09:24:25Z</time>
      </trkpt>
      <trkpt lat="48.60514" lon="2.55588">
        <ele>149</ele>
        <time>2017-11-26T09:24:27Z</time>
      </trkpt>
      <trkpt lat="48.60505" lon="2.55577">
        <ele>145</ele>
        <time>2017-11-26T09:24:29Z</time>
      </trkpt>
      <trkpt lat="48.60495" lon="2.55568">
        <ele>142</ele>
        <time>2017-11-26T09:24:31Z</time>
      </trkpt>
      <trkpt lat="48.60487" lon="2.5556">
        <ele>139</ele>
        <time>2017-11-26T09:24:33Z</time>
      </trkpt>
      <trkpt lat="48.60479" lon="2.55552">
        <ele>139</ele>
        <time>2017-11-26T09:24:35Z</time>
      </trkpt>
      <trkpt lat="48.60471" lon="2.55543">
        <ele>138</ele>
        <time>2017-11-26T09:24:37Z</time>
      </trkpt>
      <trkpt lat="48.60465" lon="2.55533">
        <ele>138</ele>
        <time>2017-11-26T09:24:39Z</time>
      </trkpt>
      <trkpt lat="48.60455" lon="2.55523">
        <ele>136</ele>
        <time>2017-11-26T09:24:41Z</time>
      </trkpt>
      <trkpt lat="48.60446" lon="2.55513">
        <ele>136</ele>
        <time>2017-11-26T09:24:43Z</time>
      </trkpt>
      <trkpt lat="48.60435" lon="2.55505">
        <ele>137</ele>
        <time>2017-11-26T09:24:45Z</time>
      </trkpt>
      <trkpt lat="48.60424" lon="2.55494">
        <ele>133</ele>
        <time>2017-11-26T09:24:47Z</time>
      </trkpt>
      <trkpt lat="48.60415" lon="2.55482">
        <ele>133</ele>
        <time>2017-11-26T09:24:50Z</time>
      </trkpt>
      <trkpt lat="48.60408" lon="2.5547">
        <ele>133</ele>
        <time>2017-11-26T09:24:53Z</time>
      </trkpt>
      <trkpt lat="48.60396" lon="2.55456">
        <ele>131</ele>
        <time>2017-11-26T09:24:56Z</time>
      </trkpt>
      <trkpt lat="48.60389" lon="2.55447">
        <ele>129</ele>
        <time>2017-11-26T09:24:58Z</time>
      </trkpt>
      <trkpt lat="48.60381" lon="2.55434">
        <ele>132</ele>
        <time>2017-11-26T09:25:01Z</time>
      </trkpt>
      <trkpt lat="48.60374" lon="2.55426">
        <ele>132</ele>
        <time>2017-11-26T09:25:03Z</time>
      </trkpt>
      <trkpt lat="48.60368" lon="2.55414">
        <ele>136</ele>
        <time>2017-11-26T09:25:06Z</time>
      </trkpt>
      <trkpt lat="48.60362" lon="2.55399">
        <ele>140</ele>
        <time>2017-11-26T09:25:11Z</time>
      </trkpt>
      <trkpt lat="48.60358" lon="2.55387">
        <ele>141</ele>
        <time>2017-11-26T09:25:17Z</time>
      </trkpt>
      <trkpt lat="48.60356" lon="2.55381">
        <ele>142</ele>
        <time>2017-11-26T09:25:20Z</time>
      </trkpt>
      <trkpt lat="48.60356" lon="2.55381">
        <ele>142</ele>
        <time>2017-11-26T09:25:20Z</time>
      </trkpt>
      <trkpt lat="48.60344" lon="2.55358">
        <ele>143</ele>
        <time>2017-11-26T09:25:39Z</time>
      </trkpt>
      <trkpt lat="48.60336" lon="2.5535">
        <ele>142</ele>
        <time>2017-11-26T09:25:42Z</time>
      </trkpt>
      <trkpt lat="48.6033" lon="2.5534">
        <ele>141</ele>
        <time>2017-11-26T09:25:45Z</time>
      </trkpt>
      <trkpt lat="48.60322" lon="2.5533">
        <ele>140</ele>
        <time>2017-11-26T09:25:48Z</time>
      </trkpt>
      <trkpt lat="48.60316" lon="2.5532">
        <ele>141</ele>
        <time>2017-11-26T09:25:51Z</time>
      </trkpt>
      <trkpt lat="48.6031" lon="2.55308">
        <ele>141</ele>
        <time>2017-11-26T09:25:54Z</time>
      </trkpt>
      <trkpt lat="48.60303" lon="2.55294">
        <ele>142</ele>
        <time>2017-11-26T09:25:58Z</time>
      </trkpt>
      <trkpt lat="48.60299" lon="2.5528">
        <ele>142</ele>
        <time>2017-11-26T09:26:02Z</time>
      </trkpt>
      <trkpt lat="48.60294" lon="2.55266">
        <ele>142</ele>
        <time>2017-11-26T09:26:06Z</time>
      </trkpt>
      <trkpt lat="48.60286" lon="2.5525">
        <ele>142</ele>
        <time>2017-11-26T09:26:10Z</time>
      </trkpt>
      <trkpt lat="48.6028" lon="2.55237">
        <ele>143</ele>
        <time>2017-11-26T09:26:13Z</time>
      </trkpt>
      <trkpt lat="48.60272" lon="2.55226">
        <ele>143</ele>
        <time>2017-11-26T09:26:16Z</time>
      </trkpt>
      <trkpt lat="48.60263" lon="2.55216">
        <ele>140</ele>
        <time>2017-11-26T09:26:19Z</time>
      </trkpt>
      <trkpt lat="48.60255" lon="2.55201">
        <ele>141</ele>
        <time>2017-11-26T09:26:22Z</time>
      </trkpt>
      <trkpt lat="48.60255" lon="2.55184">
        <ele>145</ele>
        <time>2017-11-26T09:26:26Z</time>
      </trkpt>
      <trkpt lat="48.60251" lon="2.55171">
        <ele>146</ele>
        <time>2017-11-26T09:26:29Z</time>
      </trkpt>
      <trkpt lat="48.60244" lon="2.55157">
        <ele>146</ele>
        <time>2017-11-26T09:26:32Z</time>
      </trkpt>
      <trkpt lat="48.60243" lon="2.55143">
        <ele>148</ele>
        <time>2017-11-26T09:26:35Z</time>
      </trkpt>
      <trkpt lat="48.60234" lon="2.55129">
        <ele>146</ele>
        <time>2017-11-26T09:26:38Z</time>
      </trkpt>
      <trkpt lat="48.60226" lon="2.55121">
        <ele>140</ele>
        <time>2017-11-26T09:26:40Z</time>
      </trkpt>
      <trkpt lat="48.60221" lon="2.55105">
        <ele>139</ele>
        <time>2017-11-26T09:26:44Z</time>
      </trkpt>
      <trkpt lat="48.60215" lon="2.55092">
        <ele>138</ele>
        <time>2017-11-26T09:26:47Z</time>
      </trkpt>
      <trkpt lat="48.60211" lon="2.55076">
        <ele>138</ele>
        <time>2017-11-26T09:26:50Z</time>
      </trkpt>
      <trkpt lat="48.60207" lon="2.55063">
        <ele>137</ele>
        <time>2017-11-26T09:26:55Z</time>
      </trkpt>
      <trkpt lat="48.60203" lon="2.55049">
        <ele>134</ele>
        <time>2017-11-26T09:27:01Z</time>
      </trkpt>
      <trkpt lat="48.60201" lon="2.55049">
        <ele>133</ele>
        <time>2017-11-26T09:27:04Z</time>
      </trkpt>
      <trkpt lat="48.60201" lon="2.55049">
        <ele>133</ele>
        <time>2017-11-26T09:27:04Z</time>
      </trkpt>
      <trkpt lat="48.60172" lon="2.55058">
        <ele>128</ele>
        <time>2017-11-26T09:27:23Z</time>
      </trkpt>
      <trkpt lat="48.60162" lon="2.55059">
        <ele>127</ele>
        <time>2017-11-26T09:27:26Z</time>
      </trkpt>
      <trkpt lat="48.60152" lon="2.55065">
        <ele>127</ele>
        <time>2017-11-26T09:27:29Z</time>
      </trkpt>
      <trkpt lat="48.60142" lon="2.55069">
        <ele>127</ele>
        <time>2017-11-26T09:27:32Z</time>
      </trkpt>
      <trkpt lat="48.60133" lon="2.55074">
        <ele>127</ele>
        <time>2017-11-26T09:27:35Z</time>
      </trkpt>
      <trkpt lat="48.60123" lon="2.55078">
        <ele>128</ele>
        <time>2017-11-26T09:27:37Z</time>
      </trkpt>
      <trkpt lat="48.60113" lon="2.55084">
        <ele>129</ele>
        <time>2017-11-26T09:27:40Z</time>
      </trkpt>
      <trkpt lat="48.60104" lon="2.55088">
        <ele>131</ele>
        <time>2017-11-26T09:27:43Z</time>
      </trkpt>
      <trkpt lat="48.60095" lon="2.55082">
        <ele>132</ele>
        <time>2017-11-26T09:27:47Z</time>
      </trkpt>
      <trkpt lat="48.60088" lon="2.5507">
        <ele>133</ele>
        <time>2017-11-26T09:27:51Z</time>
      </trkpt>
      <trkpt lat="48.60082" lon="2.55055">
        <ele>133</ele>
        <time>2017-11-26T09:27:55Z</time>
      </trkpt>
      <trkpt lat="48.60075" lon="2.55045">
        <ele>133</ele>
        <time>2017-11-26T09:27:58Z</time>
      </trkpt>
      <trkpt lat="48.60068" lon="2.55035">
        <ele>133</ele>
        <time>2017-11-26T09:28:02Z</time>
      </trkpt>
      <trkpt lat="48.60058" lon="2.55031">
        <ele>130</ele>
        <time>2017-11-26T09:28:05Z</time>
      </trkpt>
      <trkpt lat="48.60046" lon="2.55034">
        <ele>132</ele>
        <time>2017-11-26T09:28:09Z</time>
      </trkpt>
      <trkpt lat="48.60035" lon="2.55038">
        <ele>131</ele>
        <time>2017-11-26T09:28:13Z</time>
      </trkpt>
      <trkpt lat="48.60026" lon="2.55036">
        <ele>131</ele>
        <time>2017-11-26T09:28:17Z</time>
      </trkpt>
      <trkpt lat="48.60017" lon="2.55026">
        <ele>133</ele>
        <time>2017-11-26T09:28:23Z</time>
      </trkpt>
      <trkpt lat="48.60012" lon="2.5501">
        <ele>135</ele>
        <time>2017-11-26T09:28:27Z</time>
      </trkpt>
      <trkpt lat="48.60008" lon="2.54995">
        <ele>135</ele>
        <time>2017-11-26T09:28:31Z</time>
      </trkpt>
      <trkpt lat="48.60004" lon="2.54978">
        <ele>138</ele>
        <time>2017-11-26T09:28:35Z</time>
      </trkpt>
      <trkpt lat="48.60001" lon="2.54961">
        <ele>139</ele>
        <time>2017-11-26T09:28:39Z</time>
      </trkpt>
      <trkpt lat="48.59999" lon="2.54947">
        <ele>140</ele>
        <time>2017-11-26T09:28:42Z</time>
      </trkpt>
      <trkpt lat="48.59996" lon="2.5493">
        <ele>140</ele>
        <time>2017-11-26T09:28:45Z</time>
      </trkpt>
      <trkpt lat="48.59995" lon="2.54914">
        <ele>140</ele>
        <time>2017-11-26T09:28:48Z</time>
      </trkpt>
      <trkpt lat="48.59995" lon="2.549">
        <ele>139</ele>
        <time>2017-11-26T09:28:51Z</time>
      </trkpt>
      <trkpt lat="48.59995" lon="2.54885">
        <ele>138</ele>
        <time>2017-11-26T09:28:55Z</time>
      </trkpt>
      <trkpt lat="48.59996" lon="2.54871">
        <ele>138</ele>
        <time>2017-11-26T09:28:59Z</time>
      </trkpt>
      <trkpt lat="48.59988" lon="2.5486">
        <ele>139</ele>
        <time>2017-11-26T09:29:06Z</time>
      </trkpt>
      <trkpt lat="48.59979" lon="2.54865">
        <ele>136</ele>
        <time>2017-11-26T09:29:10Z</time>
      </trkpt>
      <trkpt lat="48.59968" lon="2.54867">
        <ele>137</ele>
        <time>2017-11-26T09:29:14Z</time>
      </trkpt>
      <trkpt lat="48.59961" lon="2.5486">
        <ele>137</ele>
        <time>2017-11-26T09:29:17Z</time>
      </trkpt>
      <trkpt lat="48.59956" lon="2.54848">
        <ele>138</ele>
        <time>2017-11-26T09:29:20Z</time>
      </trkpt>
      <trkpt lat="48.59951" lon="2.54833">
        <ele>138</ele>
        <time>2017-11-26T09:29:23Z</time>
      </trkpt>
      <trkpt lat="48.59946" lon="2.54821">
        <ele>137</ele>
        <time>2017-11-26T09:29:26Z</time>
      </trkpt>
      <trkpt lat="48.59938" lon="2.54814">
        <ele>136</ele>
        <time>2017-11-26T09:29:30Z</time>
      </trkpt>
      <trkpt lat="48.5993" lon="2.54801">
        <ele>134</ele>
        <time>2017-11-26T09:29:35Z</time>
      </trkpt>
      <trkpt lat="48.59923" lon="2.54789">
        <ele>132</ele>
        <time>2017-11-26T09:29:38Z</time>
      </trkpt>
      <trkpt lat="48.59921" lon="2.54775">
        <ele>135</ele>
        <time>2017-11-26T09:29:41Z</time>
      </trkpt>
      <trkpt lat="48.59916" lon="2.54761">
        <ele>135</ele>
        <time>2017-11-26T09:29:44Z</time>
      </trkpt>
      <trkpt lat="48.59914" lon="2.54743">
        <ele>135</ele>
        <time>2017-11-26T09:29:48Z</time>
      </trkpt>
      <trkpt lat="48.59908" lon="2.54728">
        <ele>136</ele>
        <time>2017-11-26T09:29:51Z</time>
      </trkpt>
      <trkpt lat="48.59903" lon="2.54714">
        <ele>135</ele>
        <time>2017-11-26T09:29:54Z</time>
      </trkpt>
      <trkpt lat="48.59899" lon="2.54698">
        <ele>136</ele>
        <time>2017-11-26T09:29:58Z</time>
      </trkpt>
      <trkpt lat="48.59894" lon="2.54686">
        <ele>137</ele>
        <time>2017-11-26T09:30:01Z</time>
      </trkpt>
      <trkpt lat="48.59889" lon="2.54669">
        <ele>139</ele>
        <time>2017-11-26T09:30:05Z</time>
      </trkpt>
      <trkpt lat="48.59879" lon="2.54657">
        <ele>135</ele>
        <time>2017-11-26T09:30:08Z</time>
      </trkpt>
      <trkpt lat="48.59873" lon="2.54645">
        <ele>132</ele>
        <time>2017-11-26T09:30:11Z</time>
      </trkpt>
      <trkpt lat="48.59867" lon="2.5463">
        <ele>132</ele>
        <time>2017-11-26T09:30:15Z</time>
      </trkpt>
      <trkpt lat="48.59862" lon="2.54614">
        <ele>134</ele>
        <time>2017-11-26T09:30:19Z</time>
      </trkpt>
      <trkpt lat="48.59858" lon="2.54599">
        <ele>134</ele>
        <time>2017-11-26T09:30:23Z</time>
      </trkpt>
      <trkpt lat="48.59853" lon="2.54585">
        <ele>135</ele>
        <time>2017-11-26T09:30:27Z</time>
      </trkpt>
      <trkpt lat="48.59849" lon="2.54572">
        <ele>136</ele>
        <time>2017-11-26T09:30:31Z</time>
      </trkpt>
      <trkpt lat="48.59845" lon="2.54558">
        <ele>139</ele>
        <time>2017-11-26T09:30:35Z</time>
      </trkpt>
      <trkpt lat="48.5984" lon="2.54545">
        <ele>141</ele>
        <time>2017-11-26T09:30:39Z</time>
      </trkpt>
      <trkpt lat="48.59835" lon="2.54529">
        <ele>140</ele>
        <time>2017-11-26T09:30:43Z</time>
      </trkpt>
      <trkpt lat="48.59835" lon="2.54513">
        <ele>145</ele>
        <time>2017-11-26T09:30:47Z</time>
      </trkpt>
      <trkpt lat="48.59831" lon="2.54497">
        <ele>146</ele>
        <time>2017-11-26T09:30:51Z</time>
      </trkpt>
      <trkpt lat="48.59827" lon="2.54485">
        <ele>146</ele>
        <time>2017-11-26T09:30:54Z</time>
      </trkpt>
      <trkpt lat="48.59822" lon="2.5447">
        <ele>147</ele>
        <time>2017-11-26T09:30:58Z</time>
      </trkpt>
      <trkpt lat="48.59817" lon="2.54456">
        <ele>147</ele>
        <time>2017-11-26T09:31:02Z</time>
      </trkpt>
      <trkpt lat="48.59813" lon="2.54441">
        <ele>148</ele>
        <time>2017-11-26T09:31:06Z</time>
      </trkpt>
      <trkpt lat="48.59813" lon="2.54424">
        <ele>155</ele>
        <time>2017-11-26T09:31:11Z</time>
      </trkpt>
      <trkpt lat="48.59808" lon="2.54408">
        <ele>157</ele>
        <time>2017-11-26T09:31:15Z</time>
      </trkpt>
      <trkpt lat="48.59807" lon="2.54404">
        <ele>157</ele>
        <time>2017-11-26T09:31:16Z</time>
      </trkpt>
      <trkpt lat="48.59802" lon="2.54389">
        <ele>156</ele>
        <time>2017-11-26T09:31:20Z</time>
      </trkpt>
      <trkpt lat="48.59797" lon="2.54377">
        <ele>155</ele>
        <time>2017-11-26T09:31:23Z</time>
      </trkpt>
      <trkpt lat="48.59786" lon="2.54366">
        <ele>148</ele>
        <time>2017-11-26T09:31:26Z</time>
      </trkpt>
      <trkpt lat="48.59781" lon="2.54354">
        <ele>146</ele>
        <time>2017-11-26T09:31:29Z</time>
      </trkpt>
      <trkpt lat="48.59776" lon="2.54342">
        <ele>148</ele>
        <time>2017-11-26T09:31:33Z</time>
      </trkpt>
      <trkpt lat="48.59765" lon="2.54335">
        <ele>145</ele>
        <time>2017-11-26T09:31:36Z</time>
      </trkpt>
      <trkpt lat="48.59755" lon="2.54334">
        <ele>141</ele>
        <time>2017-11-26T09:31:38Z</time>
      </trkpt>
      <trkpt lat="48.59745" lon="2.54332">
        <ele>137</ele>
        <time>2017-11-26T09:31:40Z</time>
      </trkpt>
      <trkpt lat="48.59732" lon="2.54333">
        <ele>137</ele>
        <time>2017-11-26T09:31:44Z</time>
      </trkpt>
      <trkpt lat="48.59718" lon="2.54332">
        <ele>137</ele>
        <time>2017-11-26T09:31:48Z</time>
      </trkpt>
      <trkpt lat="48.59708" lon="2.54333">
        <ele>141</ele>
        <time>2017-11-26T09:31:51Z</time>
      </trkpt>
      <trkpt lat="48.59698" lon="2.54333">
        <ele>140</ele>
        <time>2017-11-26T09:31:54Z</time>
      </trkpt>
      <trkpt lat="48.59687" lon="2.54337">
        <ele>139</ele>
        <time>2017-11-26T09:31:57Z</time>
      </trkpt>
      <trkpt lat="48.59678" lon="2.54342">
        <ele>137</ele>
        <time>2017-11-26T09:32:01Z</time>
      </trkpt>
      <trkpt lat="48.59666" lon="2.54343">
        <ele>138</ele>
        <time>2017-11-26T09:32:05Z</time>
      </trkpt>
      <trkpt lat="48.59655" lon="2.54345">
        <ele>138</ele>
        <time>2017-11-26T09:32:08Z</time>
      </trkpt>
      <trkpt lat="48.59644" lon="2.54347">
        <ele>138</ele>
        <time>2017-11-26T09:32:11Z</time>
      </trkpt>
      <trkpt lat="48.59635" lon="2.5435">
        <ele>137</ele>
        <time>2017-11-26T09:32:14Z</time>
      </trkpt>
      <trkpt lat="48.59622" lon="2.5435">
        <ele>136</ele>
        <time>2017-11-26T09:32:17Z</time>
      </trkpt>
      <trkpt lat="48.59611" lon="2.54351">
        <ele>136</ele>
        <time>2017-11-26T09:32:20Z</time>
      </trkpt>
      <trkpt lat="48.59601" lon="2.54352">
        <ele>135</ele>
        <time>2017-11-26T09:32:23Z</time>
      </trkpt>
      <trkpt lat="48.59591" lon="2.54352">
        <ele>136</ele>
        <time>2017-11-26T09:32:26Z</time>
      </trkpt>
      <trkpt lat="48.59577" lon="2.54355">
        <ele>135</ele>
        <time>2017-11-26T09:32:30Z</time>
      </trkpt>
      <trkpt lat="48.59568" lon="2.54357">
        <ele>134</ele>
        <time>2017-11-26T09:32:33Z</time>
      </trkpt>
      <trkpt lat="48.59558" lon="2.54359">
        <ele>132</ele>
        <time>2017-11-26T09:32:36Z</time>
      </trkpt>
      <trkpt lat="48.59549" lon="2.54358">
        <ele>132</ele>
        <time>2017-11-26T09:32:40Z</time>
      </trkpt>
      <trkpt lat="48.59538" lon="2.54359">
        <ele>134</ele>
        <time>2017-11-26T09:32:44Z</time>
      </trkpt>
      <trkpt lat="48.59528" lon="2.54361">
        <ele>136</ele>
        <time>2017-11-26T09:32:48Z</time>
      </trkpt>
      <trkpt lat="48.59517" lon="2.54363">
        <ele>138</ele>
        <time>2017-11-26T09:32:52Z</time>
      </trkpt>
      <trkpt lat="48.59506" lon="2.54362">
        <ele>138</ele>
        <time>2017-11-26T09:32:56Z</time>
      </trkpt>
      <trkpt lat="48.59494" lon="2.54365">
        <ele>139</ele>
        <time>2017-11-26T09:33:00Z</time>
      </trkpt>
      <trkpt lat="48.59484" lon="2.54368">
        <ele>140</ele>
        <time>2017-11-26T09:33:04Z</time>
      </trkpt>
      <trkpt lat="48.59473" lon="2.54369">
        <ele>138</ele>
        <time>2017-11-26T09:33:07Z</time>
      </trkpt>
      <trkpt lat="48.5946" lon="2.54372">
        <ele>135</ele>
        <time>2017-11-26T09:33:11Z</time>
      </trkpt>
      <trkpt lat="48.5945" lon="2.54371">
        <ele>137</ele>
        <time>2017-11-26T09:33:14Z</time>
      </trkpt>
      <trkpt lat="48.59441" lon="2.5437">
        <ele>141</ele>
        <time>2017-11-26T09:33:18Z</time>
      </trkpt>
      <trkpt lat="48.5943" lon="2.54369">
        <ele>145</ele>
        <time>2017-11-26T09:33:22Z</time>
      </trkpt>
      <trkpt lat="48.59418" lon="2.5437">
        <ele>142</ele>
        <time>2017-11-26T09:33:25Z</time>
      </trkpt>
      <trkpt lat="48.59408" lon="2.5437">
        <ele>142</ele>
        <time>2017-11-26T09:33:28Z</time>
      </trkpt>
      <trkpt lat="48.59398" lon="2.54372">
        <ele>142</ele>
        <time>2017-11-26T09:33:31Z</time>
      </trkpt>
      <trkpt lat="48.59386" lon="2.54372">
        <ele>144</ele>
        <time>2017-11-26T09:33:35Z</time>
      </trkpt>
      <trkpt lat="48.59375" lon="2.54373">
        <ele>144</ele>
        <time>2017-11-26T09:33:39Z</time>
      </trkpt>
      <trkpt lat="48.59365" lon="2.54377">
        <ele>144</ele>
        <time>2017-11-26T09:33:43Z</time>
      </trkpt>
      <trkpt lat="48.59356" lon="2.54378">
        <ele>141</ele>
        <time>2017-11-26T09:33:46Z</time>
      </trkpt>
      <trkpt lat="48.59345" lon="2.5438">
        <ele>142</ele>
        <time>2017-11-26T09:33:50Z</time>
      </trkpt>
      <trkpt lat="48.59334" lon="2.54383">
        <ele>141</ele>
        <time>2017-11-26T09:33:54Z</time>
      </trkpt>
      <trkpt lat="48.59324" lon="2.54383">
        <ele>145</ele>
        <time>2017-11-26T09:33:58Z</time>
      </trkpt>
      <trkpt lat="48.59313" lon="2.54384">
        <ele>146</ele>
        <time>2017-11-26T09:34:02Z</time>
      </trkpt>
      <trkpt lat="48.59303" lon="2.54385">
        <ele>147</ele>
        <time>2017-11-26T09:34:05Z</time>
      </trkpt>
      <trkpt lat="48.59293" lon="2.54389">
        <ele>144</ele>
        <time>2017-11-26T09:34:08Z</time>
      </trkpt>
      <trkpt lat="48.59284" lon="2.54391">
        <ele>145</ele>
        <time>2017-11-26T09:34:11Z</time>
      </trkpt>
      <trkpt lat="48.59272" lon="2.54395">
        <ele>144</ele>
        <time>2017-11-26T09:34:15Z</time>
      </trkpt>
      <trkpt lat="48.59263" lon="2.54397">
        <ele>144</ele>
        <time>2017-11-26T09:34:18Z</time>
      </trkpt>
      <trkpt lat="48.59252" lon="2.54397">
        <ele>144</ele>
        <time>2017-11-26T09:34:21Z</time>
      </trkpt>
      <trkpt lat="48.59241" lon="2.54402">
        <ele>146</ele>
        <time>2017-11-26T09:34:25Z</time>
      </trkpt>
      <trkpt lat="48.59231" lon="2.54404">
        <ele>141</ele>
        <time>2017-11-26T09:34:27Z</time>
      </trkpt>
      <trkpt lat="48.5922" lon="2.54401">
        <ele>142</ele>
        <time>2017-11-26T09:34:31Z</time>
      </trkpt>
      <trkpt lat="48.5921" lon="2.544">
        <ele>143</ele>
        <time>2017-11-26T09:34:34Z</time>
      </trkpt>
      <trkpt lat="48.59199" lon="2.54401">
        <ele>146</ele>
        <time>2017-11-26T09:34:37Z</time>
      </trkpt>
      <trkpt lat="48.59189" lon="2.544">
        <ele>145</ele>
        <time>2017-11-26T09:34:40Z</time>
      </trkpt>
      <trkpt lat="48.59179" lon="2.54402">
        <ele>145</ele>
        <time>2017-11-26T09:34:43Z</time>
      </trkpt>
      <trkpt lat="48.59169" lon="2.54401">
        <ele>145</ele>
        <time>2017-11-26T09:34:46Z</time>
      </trkpt>
      <trkpt lat="48.59158" lon="2.54403">
        <ele>147</ele>
        <time>2017-11-26T09:34:50Z</time>
      </trkpt>
      <trkpt lat="48.59146" lon="2.54406">
        <ele>145</ele>
        <time>2017-11-26T09:34:53Z</time>
      </trkpt>
      <trkpt lat="48.59136" lon="2.54409">
        <ele>144</ele>
        <time>2017-11-26T09:34:56Z</time>
      </trkpt>
      <trkpt lat="48.59126" lon="2.54416">
        <ele>145</ele>
        <time>2017-11-26T09:35:00Z</time>
      </trkpt>
      <trkpt lat="48.59114" lon="2.54418">
        <ele>145</ele>
        <time>2017-11-26T09:35:03Z</time>
      </trkpt>
      <trkpt lat="48.59102" lon="2.54416">
        <ele>146</ele>
        <time>2017-11-26T09:35:06Z</time>
      </trkpt>
      <trkpt lat="48.59093" lon="2.54415">
        <ele>145</ele>
        <time>2017-11-26T09:35:08Z</time>
      </trkpt>
      <trkpt lat="48.5908" lon="2.54415">
        <ele>145</ele>
        <time>2017-11-26T09:35:12Z</time>
      </trkpt>
      <trkpt lat="48.59067" lon="2.54419">
        <ele>139</ele>
        <time>2017-11-26T09:35:15Z</time>
      </trkpt>
      <trkpt lat="48.59056" lon="2.54424">
        <ele>143</ele>
        <time>2017-11-26T09:35:19Z</time>
      </trkpt>
      <trkpt lat="48.59046" lon="2.54422">
        <ele>144</ele>
        <time>2017-11-26T09:35:22Z</time>
      </trkpt>
      <trkpt lat="48.59037" lon="2.54424">
        <ele>145</ele>
        <time>2017-11-26T09:35:25Z</time>
      </trkpt>
      <trkpt lat="48.59028" lon="2.54424">
        <ele>144</ele>
        <time>2017-11-26T09:35:27Z</time>
      </trkpt>
      <trkpt lat="48.59015" lon="2.54423">
        <ele>144</ele>
        <time>2017-11-26T09:35:30Z</time>
      </trkpt>
      <trkpt lat="48.59006" lon="2.54426">
        <ele>144</ele>
        <time>2017-11-26T09:35:33Z</time>
      </trkpt>
      <trkpt lat="48.58994" lon="2.54426">
        <ele>143</ele>
        <time>2017-11-26T09:35:38Z</time>
      </trkpt>
      <trkpt lat="48.58985" lon="2.5443">
        <ele>144</ele>
        <time>2017-11-26T09:35:41Z</time>
      </trkpt>
      <trkpt lat="48.58975" lon="2.54436">
        <ele>142</ele>
        <time>2017-11-26T09:35:45Z</time>
      </trkpt>
      <trkpt lat="48.58964" lon="2.5444">
        <ele>137</ele>
        <time>2017-11-26T09:35:49Z</time>
      </trkpt>
      <trkpt lat="48.58965" lon="2.54455">
        <ele>131</ele>
        <time>2017-11-26T09:35:55Z</time>
      </trkpt>
      <trkpt lat="48.58968" lon="2.54468">
        <ele>129</ele>
        <time>2017-11-26T09:35:59Z</time>
      </trkpt>
      <trkpt lat="48.5897" lon="2.54485">
        <ele>129</ele>
        <time>2017-11-26T09:36:03Z</time>
      </trkpt>
      <trkpt lat="48.58974" lon="2.54501">
        <ele>134</ele>
        <time>2017-11-26T09:36:09Z</time>
      </trkpt>
      <trkpt lat="48.5898" lon="2.54511">
        <ele>133</ele>
        <time>2017-11-26T09:36:13Z</time>
      </trkpt>
      <trkpt lat="48.58986" lon="2.54524">
        <ele>135</ele>
        <time>2017-11-26T09:36:17Z</time>
      </trkpt>
      <trkpt lat="48.58991" lon="2.54538">
        <ele>135</ele>
        <time>2017-11-26T09:36:21Z</time>
      </trkpt>
      <trkpt lat="48.58998" lon="2.54553">
        <ele>137</ele>
        <time>2017-11-26T09:36:25Z</time>
      </trkpt>
      <trkpt lat="48.59004" lon="2.54564">
        <ele>136</ele>
        <time>2017-11-26T09:36:29Z</time>
      </trkpt>
      <trkpt lat="48.59012" lon="2.54575">
        <ele>138</ele>
        <time>2017-11-26T09:36:33Z</time>
      </trkpt>
      <trkpt lat="48.5902" lon="2.54585">
        <ele>139</ele>
        <time>2017-11-26T09:36:37Z</time>
      </trkpt>
      <trkpt lat="48.59026" lon="2.54597">
        <ele>137</ele>
        <time>2017-11-26T09:36:42Z</time>
      </trkpt>
      <trkpt lat="48.59033" lon="2.54612">
        <ele>137</ele>
        <time>2017-11-26T09:36:47Z</time>
      </trkpt>
      <trkpt lat="48.5904" lon="2.54621">
        <ele>136</ele>
        <time>2017-11-26T09:36:50Z</time>
      </trkpt>
      <trkpt lat="48.59047" lon="2.54631">
        <ele>135</ele>
        <time>2017-11-26T09:36:53Z</time>
      </trkpt>
      <trkpt lat="48.59053" lon="2.54646">
        <ele>136</ele>
        <time>2017-11-26T09:36:57Z</time>
      </trkpt>
      <trkpt lat="48.59061" lon="2.54657">
        <ele>140</ele>
        <time>2017-11-26T09:37:01Z</time>
      </trkpt>
      <trkpt lat="48.59067" lon="2.54669">
        <ele>143</ele>
        <time>2017-11-26T09:37:04Z</time>
      </trkpt>
      <trkpt lat="48.59074" lon="2.5468">
        <ele>142</ele>
        <time>2017-11-26T09:37:08Z</time>
      </trkpt>
      <trkpt lat="48.5908" lon="2.54691">
        <ele>142</ele>
        <time>2017-11-26T09:37:12Z</time>
      </trkpt>
      <trkpt lat="48.59087" lon="2.54701">
        <ele>140</ele>
        <time>2017-11-26T09:37:16Z</time>
      </trkpt>
      <trkpt lat="48.59095" lon="2.54712">
        <ele>138</ele>
        <time>2017-11-26T09:37:20Z</time>
      </trkpt>
      <trkpt lat="48.59102" lon="2.54723">
        <ele>141</ele>
        <time>2017-11-26T09:37:25Z</time>
      </trkpt>
      <trkpt lat="48.59109" lon="2.54735">
        <ele>142</ele>
        <time>2017-11-26T09:37:30Z</time>
      </trkpt>
      <trkpt lat="48.59116" lon="2.54747">
        <ele>143</ele>
        <time>2017-11-26T09:37:34Z</time>
      </trkpt>
      <trkpt lat="48.59123" lon="2.54757">
        <ele>146</ele>
        <time>2017-11-26T09:37:38Z</time>
      </trkpt>
      <trkpt lat="48.59132" lon="2.54768">
        <ele>147</ele>
        <time>2017-11-26T09:37:42Z</time>
      </trkpt>
      <trkpt lat="48.5914" lon="2.54778">
        <ele>148</ele>
        <time>2017-11-26T09:37:46Z</time>
      </trkpt>
      <trkpt lat="48.59149" lon="2.54793">
        <ele>148</ele>
        <time>2017-11-26T09:37:49Z</time>
      </trkpt>
      <trkpt lat="48.59156" lon="2.54804">
        <ele>146</ele>
        <time>2017-11-26T09:37:54Z</time>
      </trkpt>
      <trkpt lat="48.59162" lon="2.54816">
        <ele>149</ele>
        <time>2017-11-26T09:38:01Z</time>
      </trkpt>
      <trkpt lat="48.5917" lon="2.54829">
        <ele>144</ele>
        <time>2017-11-26T09:38:04Z</time>
      </trkpt>
      <trkpt lat="48.59177" lon="2.54839">
        <ele>147</ele>
        <time>2017-11-26T09:38:07Z</time>
      </trkpt>
      <trkpt lat="48.59185" lon="2.5485">
        <ele>147</ele>
        <time>2017-11-26T09:38:09Z</time>
      </trkpt>
      <trkpt lat="48.59192" lon="2.54861">
        <ele>148</ele>
        <time>2017-11-26T09:38:14Z</time>
      </trkpt>
      <trkpt lat="48.59201" lon="2.54873">
        <ele>148</ele>
        <time>2017-11-26T09:38:18Z</time>
      </trkpt>
      <trkpt lat="48.5921" lon="2.54885">
        <ele>148</ele>
        <time>2017-11-26T09:38:22Z</time>
      </trkpt>
      <trkpt lat="48.59214" lon="2.54897">
        <ele>147</ele>
        <time>2017-11-26T09:38:25Z</time>
      </trkpt>
      <trkpt lat="48.59224" lon="2.54907">
        <ele>146</ele>
        <time>2017-11-26T09:38:28Z</time>
      </trkpt>
      <trkpt lat="48.59232" lon="2.54915">
        <ele>145</ele>
        <time>2017-11-26T09:38:31Z</time>
      </trkpt>
      <trkpt lat="48.59237" lon="2.54928">
        <ele>145</ele>
        <time>2017-11-26T09:38:36Z</time>
      </trkpt>
      <trkpt lat="48.59245" lon="2.5494">
        <ele>146</ele>
        <time>2017-11-26T09:38:39Z</time>
      </trkpt>
      <trkpt lat="48.59254" lon="2.54952">
        <ele>145</ele>
        <time>2017-11-26T09:38:43Z</time>
      </trkpt>
      <trkpt lat="48.59259" lon="2.54965">
        <ele>144</ele>
        <time>2017-11-26T09:38:48Z</time>
      </trkpt>
      <trkpt lat="48.59267" lon="2.54973">
        <ele>145</ele>
        <time>2017-11-26T09:38:52Z</time>
      </trkpt>
      <trkpt lat="48.59273" lon="2.54985">
        <ele>147</ele>
        <time>2017-11-26T09:38:55Z</time>
      </trkpt>
      <trkpt lat="48.59282" lon="2.54995">
        <ele>144</ele>
        <time>2017-11-26T09:38:58Z</time>
      </trkpt>
      <trkpt lat="48.5929" lon="2.55008">
        <ele>145</ele>
        <time>2017-11-26T09:39:02Z</time>
      </trkpt>
      <trkpt lat="48.59295" lon="2.55021">
        <ele>144</ele>
        <time>2017-11-26T09:39:06Z</time>
      </trkpt>
      <trkpt lat="48.59303" lon="2.55031">
        <ele>144</ele>
        <time>2017-11-26T09:39:10Z</time>
      </trkpt>
      <trkpt lat="48.59311" lon="2.55039">
        <ele>142</ele>
        <time>2017-11-26T09:39:13Z</time>
      </trkpt>
      <trkpt lat="48.59318" lon="2.55052">
        <ele>144</ele>
        <time>2017-11-26T09:39:18Z</time>
      </trkpt>
      <trkpt lat="48.59326" lon="2.5506">
        <ele>142</ele>
        <time>2017-11-26T09:39:21Z</time>
      </trkpt>
      <trkpt lat="48.59333" lon="2.55073">
        <ele>140</ele>
        <time>2017-11-26T09:39:25Z</time>
      </trkpt>
      <trkpt lat="48.59339" lon="2.55088">
        <ele>138</ele>
        <time>2017-11-26T09:39:28Z</time>
      </trkpt>
      <trkpt lat="48.59347" lon="2.55097">
        <ele>138</ele>
        <time>2017-11-26T09:39:32Z</time>
      </trkpt>
      <trkpt lat="48.59355" lon="2.55107">
        <ele>137</ele>
        <time>2017-11-26T09:39:36Z</time>
      </trkpt>
      <trkpt lat="48.59364" lon="2.55118">
        <ele>137</ele>
        <time>2017-11-26T09:39:39Z</time>
      </trkpt>
      <trkpt lat="48.5937" lon="2.55131">
        <ele>139</ele>
        <time>2017-11-26T09:39:43Z</time>
      </trkpt>
      <trkpt lat="48.59378" lon="2.55143">
        <ele>139</ele>
        <time>2017-11-26T09:39:47Z</time>
      </trkpt>
      <trkpt lat="48.59384" lon="2.55155">
        <ele>139</ele>
        <time>2017-11-26T09:39:51Z</time>
      </trkpt>
      <trkpt lat="48.5939" lon="2.55167">
        <ele>138</ele>
        <time>2017-11-26T09:39:54Z</time>
      </trkpt>
      <trkpt lat="48.59398" lon="2.55177">
        <ele>140</ele>
        <time>2017-11-26T09:39:58Z</time>
      </trkpt>
      <trkpt lat="48.59404" lon="2.5519">
        <ele>141</ele>
        <time>2017-11-26T09:40:01Z</time>
      </trkpt>
      <trkpt lat="48.59411" lon="2.552">
        <ele>140</ele>
        <time>2017-11-26T09:40:05Z</time>
      </trkpt>
      <trkpt lat="48.59419" lon="2.55208">
        <ele>141</ele>
        <time>2017-11-26T09:40:10Z</time>
      </trkpt>
      <trkpt lat="48.59425" lon="2.55218">
        <ele>141</ele>
        <time>2017-11-26T09:40:13Z</time>
      </trkpt>
      <trkpt lat="48.59434" lon="2.55234">
        <ele>142</ele>
        <time>2017-11-26T09:40:19Z</time>
      </trkpt>
      <trkpt lat="48.5944" lon="2.55245">
        <ele>138</ele>
        <time>2017-11-26T09:40:22Z</time>
      </trkpt>
      <trkpt lat="48.59448" lon="2.55258">
        <ele>140</ele>
        <time>2017-11-26T09:40:26Z</time>
      </trkpt>
      <trkpt lat="48.59454" lon="2.5527">
        <ele>140</ele>
        <time>2017-11-26T09:40:29Z</time>
      </trkpt>
      <trkpt lat="48.59462" lon="2.55277">
        <ele>138</ele>
        <time>2017-11-26T09:40:32Z</time>
      </trkpt>
      <trkpt lat="48.59468" lon="2.55291">
        <ele>142</ele>
        <time>2017-11-26T09:40:36Z</time>
      </trkpt>
      <trkpt lat="48.59475" lon="2.55305">
        <ele>143</ele>
        <time>2017-11-26T09:40:40Z</time>
      </trkpt>
      <trkpt lat="48.59482" lon="2.55315">
        <ele>141</ele>
        <time>2017-11-26T09:40:45Z</time>
      </trkpt>
      <trkpt lat="48.59491" lon="2.55325">
        <ele>141</ele>
        <time>2017-11-26T09:40:51Z</time>
      </trkpt>
      <trkpt lat="48.59499" lon="2.55337">
        <ele>140</ele>
        <time>2017-11-26T09:40:57Z</time>
      </trkpt>
      <trkpt lat="48.59506" lon="2.55349">
        <ele>143</ele>
        <time>2017-11-26T09:41:02Z</time>
      </trkpt>
      <trkpt lat="48.59513" lon="2.5536">
        <ele>145</ele>
        <time>2017-11-26T09:41:06Z</time>
      </trkpt>
      <trkpt lat="48.59521" lon="2.55371">
        <ele>144</ele>
        <time>2017-11-26T09:41:10Z</time>
      </trkpt>
      <trkpt lat="48.59529" lon="2.55379">
        <ele>144</ele>
        <time>2017-11-26T09:41:14Z</time>
      </trkpt>
      <trkpt lat="48.59536" lon="2.55394">
        <ele>143</ele>
        <time>2017-11-26T09:41:18Z</time>
      </trkpt>
      <trkpt lat="48.59545" lon="2.55402">
        <ele>142</ele>
        <time>2017-11-26T09:41:22Z</time>
      </trkpt>
      <trkpt lat="48.59552" lon="2.55413">
        <ele>140</ele>
        <time>2017-11-26T09:41:26Z</time>
      </trkpt>
      <trkpt lat="48.59559" lon="2.55423">
        <ele>140</ele>
        <time>2017-11-26T09:41:29Z</time>
      </trkpt>
      <trkpt lat="48.59566" lon="2.55438">
        <ele>139</ele>
        <time>2017-11-26T09:41:33Z</time>
      </trkpt>
      <trkpt lat="48.59572" lon="2.55451">
        <ele>139</ele>
        <time>2017-11-26T09:41:37Z</time>
      </trkpt>
      <trkpt lat="48.59578" lon="2.55464">
        <ele>139</ele>
        <time>2017-11-26T09:41:41Z</time>
      </trkpt>
      <trkpt lat="48.59584" lon="2.55477">
        <ele>139</ele>
        <time>2017-11-26T09:41:45Z</time>
      </trkpt>
      <trkpt lat="48.59588" lon="2.55491">
        <ele>140</ele>
        <time>2017-11-26T09:41:49Z</time>
      </trkpt>
      <trkpt lat="48.59591" lon="2.55504">
        <ele>143</ele>
        <time>2017-11-26T09:41:53Z</time>
      </trkpt>
      <trkpt lat="48.59593" lon="2.55518">
        <ele>147</ele>
        <time>2017-11-26T09:41:59Z</time>
      </trkpt>
      <trkpt lat="48.59597" lon="2.55534">
        <ele>146</ele>
        <time>2017-11-26T09:42:03Z</time>
      </trkpt>
      <trkpt lat="48.59601" lon="2.5555">
        <ele>146</ele>
        <time>2017-11-26T09:42:08Z</time>
      </trkpt>
      <trkpt lat="48.59604" lon="2.55564">
        <ele>146</ele>
        <time>2017-11-26T09:42:11Z</time>
      </trkpt>
      <trkpt lat="48.59608" lon="2.55582">
        <ele>144</ele>
        <time>2017-11-26T09:42:15Z</time>
      </trkpt>
      <trkpt lat="48.5961" lon="2.556">
        <ele>145</ele>
        <time>2017-11-26T09:42:20Z</time>
      </trkpt>
      <trkpt lat="48.59615" lon="2.55613">
        <ele>146</ele>
        <time>2017-11-26T09:42:23Z</time>
      </trkpt>
      <trkpt lat="48.59618" lon="2.55627">
        <ele>145</ele>
        <time>2017-11-26T09:42:27Z</time>
      </trkpt>
      <trkpt lat="48.59621" lon="2.55641">
        <ele>148</ele>
        <time>2017-11-26T09:42:31Z</time>
      </trkpt>
      <trkpt lat="48.59625" lon="2.55658">
        <ele>146</ele>
        <time>2017-11-26T09:42:35Z</time>
      </trkpt>
      <trkpt lat="48.59628" lon="2.55671">
        <ele>147</ele>
        <time>2017-11-26T09:42:39Z</time>
      </trkpt>
      <trkpt lat="48.5963" lon="2.55686">
        <ele>148</ele>
        <time>2017-11-26T09:42:44Z</time>
      </trkpt>
      <trkpt lat="48.59634" lon="2.55702">
        <ele>148</ele>
        <time>2017-11-26T09:42:48Z</time>
      </trkpt>
      <trkpt lat="48.59639" lon="2.55714">
        <ele>147</ele>
        <time>2017-11-26T09:42:51Z</time>
      </trkpt>
      <trkpt lat="48.59643" lon="2.55732">
        <ele>148</ele>
        <time>2017-11-26T09:42:55Z</time>
      </trkpt>
      <trkpt lat="48.59646" lon="2.55748">
        <ele>149</ele>
        <time>2017-11-26T09:42:59Z</time>
      </trkpt>
      <trkpt lat="48.5965" lon="2.55764">
        <ele>149</ele>
        <time>2017-11-26T09:43:03Z</time>
      </trkpt>
      <trkpt lat="48.59657" lon="2.55779">
        <ele>149</ele>
        <time>2017-11-26T09:43:07Z</time>
      </trkpt>
      <trkpt lat="48.59658" lon="2.55796">
        <ele>149</ele>
        <time>2017-11-26T09:43:11Z</time>
      </trkpt>
      <trkpt lat="48.59663" lon="2.55813">
        <ele>144</ele>
        <time>2017-11-26T09:43:13Z</time>
      </trkpt>
      <trkpt lat="48.59665" lon="2.5583">
        <ele>143</ele>
        <time>2017-11-26T09:43:18Z</time>
      </trkpt>
      <trkpt lat="48.59671" lon="2.55841">
        <ele>142</ele>
        <time>2017-11-26T09:43:21Z</time>
      </trkpt>
      <trkpt lat="48.59673" lon="2.55855">
        <ele>141</ele>
        <time>2017-11-26T09:43:24Z</time>
      </trkpt>
      <trkpt lat="48.59677" lon="2.5587">
        <ele>142</ele>
        <time>2017-11-26T09:43:28Z</time>
      </trkpt>
      <trkpt lat="48.59681" lon="2.55886">
        <ele>144</ele>
        <time>2017-11-26T09:43:33Z</time>
      </trkpt>
      <trkpt lat="48.59683" lon="2.55901">
        <ele>145</ele>
        <time>2017-11-26T09:43:37Z</time>
      </trkpt>
      <trkpt lat="48.59688" lon="2.55916">
        <ele>140</ele>
        <time>2017-11-26T09:43:40Z</time>
      </trkpt>
      <trkpt lat="48.59691" lon="2.55933">
        <ele>140</ele>
        <time>2017-11-26T09:43:43Z</time>
      </trkpt>
      <trkpt lat="48.59695" lon="2.55947">
        <ele>143</ele>
        <time>2017-11-26T09:43:47Z</time>
      </trkpt>
      <trkpt lat="48.59699" lon="2.55961">
        <ele>144</ele>
        <time>2017-11-26T09:43:51Z</time>
      </trkpt>
      <trkpt lat="48.59704" lon="2.55977">
        <ele>142</ele>
        <time>2017-11-26T09:43:56Z</time>
      </trkpt>
      <trkpt lat="48.59707" lon="2.5599">
        <ele>143</ele>
        <time>2017-11-26T09:44:00Z</time>
      </trkpt>
      <trkpt lat="48.5971" lon="2.56005">
        <ele>143</ele>
        <time>2017-11-26T09:44:04Z</time>
      </trkpt>
      <trkpt lat="48.59712" lon="2.56021">
        <ele>143</ele>
        <time>2017-11-26T09:44:08Z</time>
      </trkpt>
      <trkpt lat="48.59718" lon="2.56039">
        <ele>141</ele>
        <time>2017-11-26T09:44:12Z</time>
      </trkpt>
      <trkpt lat="48.59722" lon="2.56056">
        <ele>140</ele>
        <time>2017-11-26T09:44:16Z</time>
      </trkpt>
      <trkpt lat="48.59727" lon="2.56071">
        <ele>138</ele>
        <time>2017-11-26T09:44:19Z</time>
      </trkpt>
      <trkpt lat="48.5973" lon="2.56085">
        <ele>141</ele>
        <time>2017-11-26T09:44:23Z</time>
      </trkpt>
      <trkpt lat="48.59733" lon="2.561">
        <ele>141</ele>
        <time>2017-11-26T09:44:26Z</time>
      </trkpt>
      <trkpt lat="48.59737" lon="2.56115">
        <ele>142</ele>
        <time>2017-11-26T09:44:30Z</time>
      </trkpt>
      <trkpt lat="48.59741" lon="2.5613">
        <ele>142</ele>
        <time>2017-11-26T09:44:34Z</time>
      </trkpt>
      <trkpt lat="48.59744" lon="2.56146">
        <ele>144</ele>
        <time>2017-11-26T09:44:39Z</time>
      </trkpt>
      <trkpt lat="48.59748" lon="2.56162">
        <ele>144</ele>
        <time>2017-11-26T09:44:43Z</time>
      </trkpt>
      <trkpt lat="48.59753" lon="2.56176">
        <ele>145</ele>
        <time>2017-11-26T09:44:46Z</time>
      </trkpt>
      <trkpt lat="48.59757" lon="2.56194">
        <ele>140</ele>
        <time>2017-11-26T09:44:50Z</time>
      </trkpt>
      <trkpt lat="48.5976" lon="2.56207">
        <ele>142</ele>
        <time>2017-11-26T09:44:57Z</time>
      </trkpt>
      <trkpt lat="48.59764" lon="2.56219">
        <ele>139</ele>
        <time>2017-11-26T09:45:01Z</time>
      </trkpt>
      <trkpt lat="48.59769" lon="2.56236">
        <ele>133</ele>
        <time>2017-11-26T09:45:05Z</time>
      </trkpt>
      <trkpt lat="48.5978" lon="2.56239">
        <ele>130</ele>
        <time>2017-11-26T09:45:09Z</time>
      </trkpt>
      <trkpt lat="48.5979" lon="2.56235">
        <ele>129</ele>
        <time>2017-11-26T09:45:13Z</time>
      </trkpt>
      <trkpt lat="48.59802" lon="2.56235">
        <ele>130</ele>
        <time>2017-11-26T09:45:17Z</time>
      </trkpt>
      <trkpt lat="48.59813" lon="2.56233">
        <ele>130</ele>
        <time>2017-11-26T09:45:21Z</time>
      </trkpt>
      <trkpt lat="48.59824" lon="2.56232">
        <ele>130</ele>
        <time>2017-11-26T09:45:25Z</time>
      </trkpt>
      <trkpt lat="48.59835" lon="2.56229">
        <ele>130</ele>
        <time>2017-11-26T09:45:29Z</time>
      </trkpt>
      <trkpt lat="48.59844" lon="2.56228">
        <ele>130</ele>
        <time>2017-11-26T09:45:33Z</time>
      </trkpt>
      <trkpt lat="48.59855" lon="2.56227">
        <ele>131</ele>
        <time>2017-11-26T09:45:38Z</time>
      </trkpt>
      <trkpt lat="48.59865" lon="2.56224">
        <ele>131</ele>
        <time>2017-11-26T09:45:42Z</time>
      </trkpt>
      <trkpt lat="48.59875" lon="2.56221">
        <ele>131</ele>
        <time>2017-11-26T09:45:46Z</time>
      </trkpt>
      <trkpt lat="48.59884" lon="2.56219">
        <ele>131</ele>
        <time>2017-11-26T09:45:50Z</time>
      </trkpt>
      <trkpt lat="48.59894" lon="2.56215">
        <ele>130</ele>
        <time>2017-11-26T09:45:54Z</time>
      </trkpt>
      <trkpt lat="48.59905" lon="2.56213">
        <ele>131</ele>
        <time>2017-11-26T09:45:59Z</time>
      </trkpt>
      <trkpt lat="48.59915" lon="2.5621">
        <ele>131</ele>
        <time>2017-11-26T09:46:05Z</time>
      </trkpt>
      <trkpt lat="48.59925" lon="2.5621">
        <ele>132</ele>
        <time>2017-11-26T09:46:11Z</time>
      </trkpt>
      <trkpt lat="48.59934" lon="2.56207">
        <ele>133</ele>
        <time>2017-11-26T09:46:15Z</time>
      </trkpt>
      <trkpt lat="48.59943" lon="2.56205">
        <ele>133</ele>
        <time>2017-11-26T09:46:19Z</time>
      </trkpt>
      <trkpt lat="48.59953" lon="2.56205">
        <ele>133</ele>
        <time>2017-11-26T09:46:23Z</time>
      </trkpt>
      <trkpt lat="48.59962" lon="2.56203">
        <ele>134</ele>
        <time>2017-11-26T09:46:27Z</time>
      </trkpt>
      <trkpt lat="48.59972" lon="2.56201">
        <ele>134</ele>
        <time>2017-11-26T09:46:30Z</time>
      </trkpt>
      <trkpt lat="48.59983" lon="2.56199">
        <ele>134</ele>
        <time>2017-11-26T09:46:35Z</time>
      </trkpt>
      <trkpt lat="48.59992" lon="2.56197">
        <ele>134</ele>
        <time>2017-11-26T09:46:40Z</time>
      </trkpt>
      <trkpt lat="48.60003" lon="2.56195">
        <ele>134</ele>
        <time>2017-11-26T09:46:45Z</time>
      </trkpt>
      <trkpt lat="48.60014" lon="2.56192">
        <ele>134</ele>
        <time>2017-11-26T09:46:50Z</time>
      </trkpt>
      <trkpt lat="48.60024" lon="2.56191">
        <ele>134</ele>
        <time>2017-11-26T09:46:55Z</time>
      </trkpt>
      <trkpt lat="48.60035" lon="2.56188">
        <ele>135</ele>
        <time>2017-11-26T09:46:59Z</time>
      </trkpt>
      <trkpt lat="48.60045" lon="2.56186">
        <ele>135</ele>
        <time>2017-11-26T09:47:03Z</time>
      </trkpt>
      <trkpt lat="48.60054" lon="2.56185">
        <ele>136</ele>
        <time>2017-11-26T09:47:08Z</time>
      </trkpt>
      <trkpt lat="48.60065" lon="2.56182">
        <ele>136</ele>
        <time>2017-11-26T09:47:13Z</time>
      </trkpt>
      <trkpt lat="48.60074" lon="2.56179">
        <ele>136</ele>
        <time>2017-11-26T09:47:17Z</time>
      </trkpt>
      <trkpt lat="48.60083" lon="2.56176">
        <ele>135</ele>
        <time>2017-11-26T09:47:21Z</time>
      </trkpt>
      <trkpt lat="48.60094" lon="2.56173">
        <ele>135</ele>
        <time>2017-11-26T09:47:26Z</time>
      </trkpt>
      <trkpt lat="48.60104" lon="2.56166">
        <ele>133</ele>
        <time>2017-11-26T09:47:30Z</time>
      </trkpt>
      <trkpt lat="48.60114" lon="2.56162">
        <ele>133</ele>
        <time>2017-11-26T09:47:34Z</time>
      </trkpt>
      <trkpt lat="48.60123" lon="2.56158">
        <ele>133</ele>
        <time>2017-11-26T09:47:39Z</time>
      </trkpt>
      <trkpt lat="48.60132" lon="2.56156">
        <ele>133</ele>
        <time>2017-11-26T09:47:46Z</time>
      </trkpt>
      <trkpt lat="48.6014" lon="2.56148">
        <ele>133</ele>
        <time>2017-11-26T09:47:50Z</time>
      </trkpt>
      <trkpt lat="48.60146" lon="2.56135">
        <ele>134</ele>
        <time>2017-11-26T09:47:54Z</time>
      </trkpt>
      <trkpt lat="48.60147" lon="2.5612">
        <ele>132</ele>
        <time>2017-11-26T09:47:57Z</time>
      </trkpt>
      <trkpt lat="48.60145" lon="2.56103">
        <ele>131</ele>
        <time>2017-11-26T09:48:01Z</time>
      </trkpt>
      <trkpt lat="48.60144" lon="2.56086">
        <ele>131</ele>
        <time>2017-11-26T09:48:05Z</time>
      </trkpt>
      <trkpt lat="48.60143" lon="2.56072">
        <ele>131</ele>
        <time>2017-11-26T09:48:08Z</time>
      </trkpt>
      <trkpt lat="48.60141" lon="2.56056">
        <ele>131</ele>
        <time>2017-11-26T09:48:12Z</time>
      </trkpt>
      <trkpt lat="48.60139" lon="2.56043">
        <ele>130</ele>
        <time>2017-11-26T09:48:15Z</time>
      </trkpt>
      <trkpt lat="48.60138" lon="2.56029">
        <ele>130</ele>
        <time>2017-11-26T09:48:18Z</time>
      </trkpt>
      <trkpt lat="48.60135" lon="2.56013">
        <ele>130</ele>
        <time>2017-11-26T09:48:22Z</time>
      </trkpt>
      <trkpt lat="48.60133" lon="2.55998">
        <ele>130</ele>
        <time>2017-11-26T09:48:26Z</time>
      </trkpt>
      <trkpt lat="48.60131" lon="2.55981">
        <ele>129</ele>
        <time>2017-11-26T09:48:30Z</time>
      </trkpt>
      <trkpt lat="48.60127" lon="2.55965">
        <ele>127</ele>
        <time>2017-11-26T09:48:34Z</time>
      </trkpt>
      <trkpt lat="48.60128" lon="2.55948">
        <ele>128</ele>
        <time>2017-11-26T09:48:38Z</time>
      </trkpt>
      <trkpt lat="48.60133" lon="2.55933">
        <ele>128</ele>
        <time>2017-11-26T09:48:42Z</time>
      </trkpt>
      <trkpt lat="48.60138" lon="2.5592">
        <ele>128</ele>
        <time>2017-11-26T09:48:45Z</time>
      </trkpt>
      <trkpt lat="48.60142" lon="2.55908">
        <ele>129</ele>
        <time>2017-11-26T09:48:48Z</time>
      </trkpt>
      <trkpt lat="48.60146" lon="2.55895">
        <ele>129</ele>
        <time>2017-11-26T09:48:51Z</time>
      </trkpt>
      <trkpt lat="48.60151" lon="2.5588">
        <ele>130</ele>
        <time>2017-11-26T09:48:55Z</time>
      </trkpt>
      <trkpt lat="48.60155" lon="2.55864">
        <ele>131</ele>
        <time>2017-11-26T09:48:59Z</time>
      </trkpt>
      <trkpt lat="48.60157" lon="2.55847">
        <ele>131</ele>
        <time>2017-11-26T09:49:03Z</time>
      </trkpt>
      <trkpt lat="48.60159" lon="2.55832">
        <ele>130</ele>
        <time>2017-11-26T09:49:06Z</time>
      </trkpt>
      <trkpt lat="48.6016" lon="2.55817">
        <ele>130</ele>
        <time>2017-11-26T09:49:09Z</time>
      </trkpt>
      <trkpt lat="48.60163" lon="2.558">
        <ele>130</ele>
        <time>2017-11-26T09:49:13Z</time>
      </trkpt>
      <trkpt lat="48.6017" lon="2.55788">
        <ele>130</ele>
        <time>2017-11-26T09:49:17Z</time>
      </trkpt>
      <trkpt lat="48.6018" lon="2.55782">
        <ele>131</ele>
        <time>2017-11-26T09:49:21Z</time>
      </trkpt>
      <trkpt lat="48.60187" lon="2.55789">
        <ele>130</ele>
        <time>2017-11-26T09:49:32Z</time>
      </trkpt>
      <trkpt lat="48.60187" lon="2.55789">
        <ele>130</ele>
        <time>2017-11-26T09:49:32Z</time>
      </trkpt>
      <trkpt lat="48.60206" lon="2.55818">
        <ele>131</ele>
        <time>2017-11-26T09:50:05Z</time>
      </trkpt>
      <trkpt lat="48.60214" lon="2.55826">
        <ele>132</ele>
        <time>2017-11-26T09:50:09Z</time>
      </trkpt>
      <trkpt lat="48.60222" lon="2.55834">
        <ele>133</ele>
        <time>2017-11-26T09:50:13Z</time>
      </trkpt>
      <trkpt lat="48.60231" lon="2.55841">
        <ele>133</ele>
        <time>2017-11-26T09:50:16Z</time>
      </trkpt>
      <trkpt lat="48.60241" lon="2.55847">
        <ele>134</ele>
        <time>2017-11-26T09:50:20Z</time>
      </trkpt>
      <trkpt lat="48.60249" lon="2.55858">
        <ele>133</ele>
        <time>2017-11-26T09:50:24Z</time>
      </trkpt>
      <trkpt lat="48.60257" lon="2.55865">
        <ele>133</ele>
        <time>2017-11-26T09:50:29Z</time>
      </trkpt>
      <trkpt lat="48.60267" lon="2.55869">
        <ele>134</ele>
        <time>2017-11-26T09:50:34Z</time>
      </trkpt>
      <trkpt lat="48.60272" lon="2.55883">
        <ele>135</ele>
        <time>2017-11-26T09:50:38Z</time>
      </trkpt>
      <trkpt lat="48.60276" lon="2.55895">
        <ele>135</ele>
        <time>2017-11-26T09:50:42Z</time>
      </trkpt>
      <trkpt lat="48.60281" lon="2.5591">
        <ele>135</ele>
        <time>2017-11-26T09:50:47Z</time>
      </trkpt>
      <trkpt lat="48.60279" lon="2.55924">
        <ele>137</ele>
        <time>2017-11-26T09:50:53Z</time>
      </trkpt>
      <trkpt lat="48.60272" lon="2.55935">
        <ele>136</ele>
        <time>2017-11-26T09:50:58Z</time>
      </trkpt>
      <trkpt lat="48.60273" lon="2.5595">
        <ele>137</ele>
        <time>2017-11-26T09:51:04Z</time>
      </trkpt>
      <trkpt lat="48.60274" lon="2.55956">
        <ele>138</ele>
        <time>2017-11-26T09:51:09Z</time>
      </trkpt>
      <trkpt lat="48.60274" lon="2.55956">
        <ele>138</ele>
        <time>2017-11-26T09:51:09Z</time>
      </trkpt>
      <trkpt lat="48.60294" lon="2.5599">
        <ele>135</ele>
        <time>2017-11-26T09:54:04Z</time>
      </trkpt>
      <trkpt lat="48.60305" lon="2.55992">
        <ele>136</ele>
        <time>2017-11-26T09:54:12Z</time>
      </trkpt>
      <trkpt lat="48.60312" lon="2.56002">
        <ele>136</ele>
        <time>2017-11-26T09:54:18Z</time>
      </trkpt>
      <trkpt lat="48.60318" lon="2.56012">
        <ele>137</ele>
        <time>2017-11-26T09:54:22Z</time>
      </trkpt>
      <trkpt lat="48.60326" lon="2.56024">
        <ele>137</ele>
        <time>2017-11-26T09:54:27Z</time>
      </trkpt>
      <trkpt lat="48.60332" lon="2.56037">
        <ele>137</ele>
        <time>2017-11-26T09:54:31Z</time>
      </trkpt>
      <trkpt lat="48.60337" lon="2.56048">
        <ele>140</ele>
        <time>2017-11-26T09:54:35Z</time>
      </trkpt>
      <trkpt lat="48.60347" lon="2.56057">
        <ele>139</ele>
        <time>2017-11-26T09:54:39Z</time>
      </trkpt>
      <trkpt lat="48.60358" lon="2.56054">
        <ele>139</ele>
        <time>2017-11-26T09:54:43Z</time>
      </trkpt>
      <trkpt lat="48.60369" lon="2.56054">
        <ele>141</ele>
        <time>2017-11-26T09:54:47Z</time>
      </trkpt>
      <trkpt lat="48.60379" lon="2.56059">
        <ele>140</ele>
        <time>2017-11-26T09:54:50Z</time>
      </trkpt>
      <trkpt lat="48.60387" lon="2.56069">
        <ele>140</ele>
        <time>2017-11-26T09:54:54Z</time>
      </trkpt>
      <trkpt lat="48.60394" lon="2.56081">
        <ele>140</ele>
        <time>2017-11-26T09:54:58Z</time>
      </trkpt>
      <trkpt lat="48.60401" lon="2.56096">
        <ele>138</ele>
        <time>2017-11-26T09:55:03Z</time>
      </trkpt>
      <trkpt lat="48.60405" lon="2.56111">
        <ele>140</ele>
        <time>2017-11-26T09:55:07Z</time>
      </trkpt>
      <trkpt lat="48.60411" lon="2.56127">
        <ele>138</ele>
        <time>2017-11-26T09:55:11Z</time>
      </trkpt>
      <trkpt lat="48.60415" lon="2.56142">
        <ele>138</ele>
        <time>2017-11-26T09:55:15Z</time>
      </trkpt>
      <trkpt lat="48.6042" lon="2.56159">
        <ele>139</ele>
        <time>2017-11-26T09:55:19Z</time>
      </trkpt>
      <trkpt lat="48.60424" lon="2.56175">
        <ele>140</ele>
        <time>2017-11-26T09:55:23Z</time>
      </trkpt>
      <trkpt lat="48.60428" lon="2.56191">
        <ele>140</ele>
        <time>2017-11-26T09:55:27Z</time>
      </trkpt>
      <trkpt lat="48.60432" lon="2.56206">
        <ele>140</ele>
        <time>2017-11-26T09:55:31Z</time>
      </trkpt>
      <trkpt lat="48.60435" lon="2.56221">
        <ele>138</ele>
        <time>2017-11-26T09:55:36Z</time>
      </trkpt>
      <trkpt lat="48.60438" lon="2.56234">
        <ele>138</ele>
        <time>2017-11-26T09:55:42Z</time>
      </trkpt>
      <trkpt lat="48.60442" lon="2.56249">
        <ele>140</ele>
        <time>2017-11-26T09:55:50Z</time>
      </trkpt>
      <trkpt lat="48.60445" lon="2.56264">
        <ele>140</ele>
        <time>2017-11-26T09:55:55Z</time>
      </trkpt>
      <trkpt lat="48.60448" lon="2.5628">
        <ele>140</ele>
        <time>2017-11-26T09:56:00Z</time>
      </trkpt>
      <trkpt lat="48.6045" lon="2.56294">
        <ele>140</ele>
        <time>2017-11-26T09:56:03Z</time>
      </trkpt>
      <trkpt lat="48.60452" lon="2.5631">
        <ele>139</ele>
        <time>2017-11-26T09:56:07Z</time>
      </trkpt>
      <trkpt lat="48.60453" lon="2.56326">
        <ele>137</ele>
        <time>2017-11-26T09:56:11Z</time>
      </trkpt>
      <trkpt lat="48.60455" lon="2.56342">
        <ele>134</ele>
        <time>2017-11-26T09:56:15Z</time>
      </trkpt>
      <trkpt lat="48.60458" lon="2.56356">
        <ele>135</ele>
        <time>2017-11-26T09:56:19Z</time>
      </trkpt>
      <trkpt lat="48.60459" lon="2.56373">
        <ele>135</ele>
        <time>2017-11-26T09:56:23Z</time>
      </trkpt>
      <trkpt lat="48.6046" lon="2.56389">
        <ele>137</ele>
        <time>2017-11-26T09:56:27Z</time>
      </trkpt>
      <trkpt lat="48.60461" lon="2.56407">
        <ele>137</ele>
        <time>2017-11-26T09:56:31Z</time>
      </trkpt>
      <trkpt lat="48.60463" lon="2.56423">
        <ele>136</ele>
        <time>2017-11-26T09:56:34Z</time>
      </trkpt>
      <trkpt lat="48.60465" lon="2.56436">
        <ele>135</ele>
        <time>2017-11-26T09:56:37Z</time>
      </trkpt>
      <trkpt lat="48.60466" lon="2.5645">
        <ele>134</ele>
        <time>2017-11-26T09:56:40Z</time>
      </trkpt>
      <trkpt lat="48.60466" lon="2.56464">
        <ele>135</ele>
        <time>2017-11-26T09:56:43Z</time>
      </trkpt>
      <trkpt lat="48.60468" lon="2.56478">
        <ele>137</ele>
        <time>2017-11-26T09:56:46Z</time>
      </trkpt>
      <trkpt lat="48.60466" lon="2.56493">
        <ele>138</ele>
        <time>2017-11-26T09:56:50Z</time>
      </trkpt>
      <trkpt lat="48.6047" lon="2.56508">
        <ele>136</ele>
        <time>2017-11-26T09:56:55Z</time>
      </trkpt>
      <trkpt lat="48.60481" lon="2.56511">
        <ele>134</ele>
        <time>2017-11-26T09:57:04Z</time>
      </trkpt>
      <trkpt lat="48.6049" lon="2.56512">
        <ele>133</ele>
        <time>2017-11-26T09:57:08Z</time>
      </trkpt>
      <trkpt lat="48.60501" lon="2.56513">
        <ele>133</ele>
        <time>2017-11-26T09:57:12Z</time>
      </trkpt>
      <trkpt lat="48.60512" lon="2.56515">
        <ele>133</ele>
        <time>2017-11-26T09:57:16Z</time>
      </trkpt>
      <trkpt lat="48.60522" lon="2.56517">
        <ele>133</ele>
        <time>2017-11-26T09:57:19Z</time>
      </trkpt>
      <trkpt lat="48.60532" lon="2.56518">
        <ele>133</ele>
        <time>2017-11-26T09:57:22Z</time>
      </trkpt>
      <trkpt lat="48.60542" lon="2.56517">
        <ele>133</ele>
        <time>2017-11-26T09:57:25Z</time>
      </trkpt>
      <trkpt lat="48.60553" lon="2.56515">
        <ele>133</ele>
        <time>2017-11-26T09:57:28Z</time>
      </trkpt>
      <trkpt lat="48.60564" lon="2.56511">
        <ele>133</ele>
        <time>2017-11-26T09:57:31Z</time>
      </trkpt>
      <trkpt lat="48.60575" lon="2.56509">
        <ele>134</ele>
        <time>2017-11-26T09:57:34Z</time>
      </trkpt>
      <trkpt lat="48.60585" lon="2.56503">
        <ele>134</ele>
        <time>2017-11-26T09:57:37Z</time>
      </trkpt>
      <trkpt lat="48.60594" lon="2.56497">
        <ele>135</ele>
        <time>2017-11-26T09:57:40Z</time>
      </trkpt>
      <trkpt lat="48.60601" lon="2.5649">
        <ele>136</ele>
        <time>2017-11-26T09:57:43Z</time>
      </trkpt>
      <trkpt lat="48.60609" lon="2.56481">
        <ele>137</ele>
        <time>2017-11-26T09:57:46Z</time>
      </trkpt>
      <trkpt lat="48.60617" lon="2.56471">
        <ele>137</ele>
        <time>2017-11-26T09:57:49Z</time>
      </trkpt>
      <trkpt lat="48.60624" lon="2.56461">
        <ele>138</ele>
        <time>2017-11-26T09:57:53Z</time>
      </trkpt>
      <trkpt lat="48.6063" lon="2.56449">
        <ele>138</ele>
        <time>2017-11-26T09:57:57Z</time>
      </trkpt>
      <trkpt lat="48.60637" lon="2.56435">
        <ele>139</ele>
        <time>2017-11-26T09:58:01Z</time>
      </trkpt>
      <trkpt lat="48.60641" lon="2.56422">
        <ele>139</ele>
        <time>2017-11-26T09:58:04Z</time>
      </trkpt>
      <trkpt lat="48.60644" lon="2.56409">
        <ele>139</ele>
        <time>2017-11-26T09:58:07Z</time>
      </trkpt>
      <trkpt lat="48.60646" lon="2.56395">
        <ele>138</ele>
        <time>2017-11-26T09:58:10Z</time>
      </trkpt>
      <trkpt lat="48.60649" lon="2.56382">
        <ele>139</ele>
        <time>2017-11-26T09:58:13Z</time>
      </trkpt>
      <trkpt lat="48.6065" lon="2.56368">
        <ele>137</ele>
        <time>2017-11-26T09:58:17Z</time>
      </trkpt>
      <trkpt lat="48.6065" lon="2.56353">
        <ele>137</ele>
        <time>2017-11-26T09:58:25Z</time>
      </trkpt>
      <trkpt lat="48.60651" lon="2.56338">
        <ele>136</ele>
        <time>2017-11-26T09:58:29Z</time>
      </trkpt>
      <trkpt lat="48.60655" lon="2.56323">
        <ele>137</ele>
        <time>2017-11-26T09:58:34Z</time>
      </trkpt>
      <trkpt lat="48.60647" lon="2.56313">
        <ele>136</ele>
        <time>2017-11-26T09:58:39Z</time>
      </trkpt>
      <trkpt lat="48.60638" lon="2.56311">
        <ele>136</ele>
        <time>2017-11-26T09:58:43Z</time>
      </trkpt>
      <trkpt lat="48.60628" lon="2.56315">
        <ele>136</ele>
        <time>2017-11-26T09:58:47Z</time>
      </trkpt>
      <trkpt lat="48.60621" lon="2.56326">
        <ele>137</ele>
        <time>2017-11-26T09:58:51Z</time>
      </trkpt>
      <trkpt lat="48.60613" lon="2.56334">
        <ele>135</ele>
        <time>2017-11-26T09:58:54Z</time>
      </trkpt>
      <trkpt lat="48.60612" lon="2.56349">
        <ele>135</ele>
        <time>2017-11-26T09:58:58Z</time>
      </trkpt>
      <trkpt lat="48.60609" lon="2.56351">
        <ele>138</ele>
        <time>2017-11-26T09:59:05Z</time>
      </trkpt>
      <trkpt lat="48.60609" lon="2.56351">
        <ele>138</ele>
        <time>2017-11-26T09:59:05Z</time>
      </trkpt>
    </trkseg>
  </trk>
</gpx>